You are not logged in, Click here to log in
機場資訊:ZSPD Welcome to Taiwan Airways 台灣虛擬航空
ICAO: ZSPD Country: 中國上海市浦東新區
Latitude: 31.1443 Longitude: 121.808
Total Arrivals: 89 Total Departures: 85
Latest Arrival: BR15134 (ZBAA-ZSPD)Arthur. Kung Latest Departure: CZ6578 (ZSPD-ZUGY)CHU. CHUHAO
Scenery:
METAR : ZSPD 211500Z 02003MPS CAVOK 18/13 Q1017 NOSIG

上海浦東國際機場PVG